ENT weather

Eniwetok Airport
Eniwetok Atoll, Eniwetok, Marshall Islands

Public forecast

Using degrees Celsius for public forecast. Weather courtesy of forecast.io.

METAR (pilot weather report)

Closest report is Bucholz Army Air Field, 356.1 nm (659.5 km) ESE. Retrieved 2019/06/25 07:40 UTC (0 seconds ago):

PKWA 250740Z AUTO 12010KT 10SM CLR 29/26 A2986 RMK AO2 T02850256

TAF (pilot weather forecast)

Closest forecast is Bucholz Army Air Field, 356.1 nm (659.5 km) ESE. Retrieved 2019/06/25 06:33 UTC (47 minutes ago):

TAF PKWA 250529Z 2506/2606 11012KT P6SM VCSH FEW018 SCT030 BKN130